createdAt,value
2022-07-30T00:04:18.907Z,17.30
2022-07-30T00:06:46.682Z,17.50
2022-07-30T00:09:14.485Z,17.40
2022-07-30T00:11:42.486Z,17.50
2022-07-30T00:14:10.668Z,17.50
2022-07-30T00:16:39.226Z,17.50
2022-07-30T00:19:07.094Z,17.50
2022-07-30T00:21:39.134Z,17.50
2022-07-30T00:24:08.800Z,17.50
2022-07-30T00:26:36.880Z,17.50
2022-07-30T00:29:05.121Z,17.50
2022-07-30T00:34:01.163Z,17.50
2022-07-30T00:36:29.004Z,18.80
2022-07-30T00:38:57.051Z,17.60
2022-07-30T00:41:25.636Z,17.60
2022-07-30T00:43:53.555Z,17.60
2022-07-30T00:46:21.966Z,17.50
2022-07-30T00:48:50.408Z,17.50
2022-07-30T00:53:46.103Z,17.50
2022-07-30T00:56:15.454Z,17.60
2022-07-30T00:58:44.523Z,17.60
2022-07-30T01:01:12.654Z,17.50
2022-07-30T01:06:14.146Z,17.60
2022-07-30T01:08:43.598Z,17.60
2022-07-30T01:11:12.570Z,17.50
2022-07-30T01:13:45.037Z,17.50
2022-07-30T01:19:01.474Z,17.40
2022-07-30T01:21:36.675Z,17.30
2022-07-30T01:24:34.046Z,17.30
2022-07-30T01:27:02.636Z,17.30
2022-07-30T01:29:34.613Z,17.20
2022-07-30T01:32:07.372Z,17.20
2022-07-30T01:34:37.514Z,17.20
2022-07-30T01:37:09.119Z,17.20
2022-07-30T01:39:38.669Z,17.20
2022-07-30T01:42:09.198Z,17.10
2022-07-30T01:44:43.157Z,17.10
2022-07-30T01:47:13.345Z,17.20
2022-07-30T01:49:42.349Z,17.20
2022-07-30T01:52:10.777Z,17.10
2022-07-30T01:54:40.523Z,17.10
2022-07-30T01:57:09.807Z,17.10
2022-07-30T01:59:43.431Z,17.10
2022-07-30T02:02:12.937Z,17.10
2022-07-30T02:04:46.287Z,17.10
2022-07-30T02:07:39.010Z,17.10
2022-07-30T02:10:32.670Z,17.10
2022-07-30T02:13:04.809Z,17.10
2022-07-30T02:15:38.908Z,17.10
2022-07-30T02:18:28.011Z,16.90
2022-07-30T02:21:07.373Z,17.00
2022-07-30T02:23:44.629Z,17.10
2022-07-30T02:26:21.092Z,17.00
2022-07-30T02:28:52.802Z,17.00
2022-07-30T02:31:23.512Z,17.00
2022-07-30T02:33:56.671Z,17.10
2022-07-30T02:36:27.813Z,17.00
2022-07-30T02:38:58.559Z,17.00
2022-07-30T02:41:29.687Z,17.00
2022-07-30T02:44:00.503Z,17.00
2022-07-30T02:46:29.766Z,17.00
2022-07-30T02:49:18.777Z,17.00
2022-07-30T02:51:48.362Z,17.00
2022-07-30T02:54:18.545Z,17.00
2022-07-30T02:56:51.500Z,17.00
2022-07-30T02:59:23.178Z,17.00
2022-07-30T03:01:52.247Z,17.00
2022-07-30T03:04:22.062Z,17.00
2022-07-30T03:06:50.071Z,17.00
2022-07-30T03:09:18.616Z,17.00
2022-07-30T03:11:49.439Z,17.00
2022-07-30T03:16:51.861Z,17.00
2022-07-30T03:19:23.230Z,17.00
2022-07-30T03:21:53.934Z,17.00
2022-07-30T03:24:26.205Z,17.00
2022-07-30T03:26:55.547Z,17.00
2022-07-30T03:29:28.915Z,17.00
2022-07-30T03:31:57.875Z,17.10
2022-07-30T03:34:28.755Z,17.00
2022-07-30T03:37:30.259Z,16.50
2022-07-30T03:39:59.730Z,17.00
2022-07-30T03:42:28.590Z,17.00
2022-07-30T03:44:57.516Z,17.00
2022-07-30T03:47:27.091Z,17.00
2022-07-30T03:52:23.888Z,17.00
2022-07-30T03:54:51.714Z,16.90
2022-07-30T03:57:48.156Z,16.90
2022-07-30T04:00:18.279Z,16.80
2022-07-30T04:02:50.778Z,16.80
2022-07-30T04:05:41.484Z,16.80
2022-07-30T04:08:11.754Z,16.80
2022-07-30T04:10:40.206Z,16.80
2022-07-30T04:13:16.920Z,16.80
2022-07-30T04:16:39.756Z,16.70
2022-07-30T04:19:19.261Z,16.70
2022-07-30T04:21:49.560Z,16.70
2022-07-30T04:24:19.038Z,16.70
2022-07-30T04:26:48.954Z,16.70
2022-07-30T04:29:24.524Z,16.70
2022-07-30T04:31:55.093Z,16.70
2022-07-30T04:34:34.820Z,16.80
2022-07-30T04:37:05.626Z,16.80
2022-07-30T04:39:33.766Z,16.70
2022-07-30T04:42:02.427Z,16.70
2022-07-30T04:44:39.542Z,16.80
2022-07-30T04:47:25.964Z,16.80
2022-07-30T04:50:13.564Z,16.80
2022-07-30T04:52:43.266Z,16.80
2022-07-30T04:55:14.613Z,16.80
2022-07-30T04:57:48.628Z,16.80
2022-07-30T05:00:17.624Z,16.80
2022-07-30T05:02:47.222Z,16.80
2022-07-30T05:05:17.715Z,16.80
2022-07-30T05:10:38.145Z,16.90
2022-07-30T05:13:11.738Z,16.90
2022-07-30T05:15:44.870Z,16.90
2022-07-30T05:18:14.379Z,18.90
2022-07-30T05:20:45.448Z,16.90
2022-07-30T05:23:34.005Z,16.90
2022-07-30T05:26:22.401Z,16.90
2022-07-30T05:28:57.279Z,16.90
2022-07-30T05:31:51.163Z,16.90
2022-07-30T05:34:20.551Z,16.90
2022-07-30T05:36:48.458Z,17.00
2022-07-30T05:39:18.652Z,17.00
2022-07-30T05:42:04.972Z,17.00
2022-07-30T05:44:47.001Z,17.00
2022-07-30T05:47:14.717Z,17.10
2022-07-30T05:49:42.401Z,17.10
2022-07-30T05:52:15.375Z,17.20
2022-07-30T05:54:44.387Z,17.20
2022-07-30T05:57:31.827Z,17.20
2022-07-30T06:00:00.801Z,17.30
2022-07-30T06:02:45.007Z,17.30
2022-07-30T06:05:38.995Z,17.10
2022-07-30T06:08:07.821Z,17.40
2022-07-30T06:10:36.043Z,17.40
2022-07-30T06:13:04.156Z,17.40
2022-07-30T06:18:02.334Z,17.60
2022-07-30T06:20:54.916Z,17.60
2022-07-30T06:23:28.562Z,17.60
2022-07-30T06:26:10.891Z,17.70
2022-07-30T06:28:41.135Z,17.80
2022-07-30T06:31:29.003Z,17.80
2022-07-30T06:33:56.978Z,17.90
2022-07-30T06:36:26.567Z,18.00
2022-07-30T06:41:44.318Z,18.10
2022-07-30T06:44:16.203Z,18.10
2022-07-30T06:47:07.486Z,18.10
2022-07-30T06:49:37.690Z,18.20
2022-07-30T06:52:06.892Z,18.20
2022-07-30T06:54:35.484Z,18.10
2022-07-30T06:59:55.986Z,18.20
2022-07-30T07:02:42.777Z,18.30
2022-07-30T07:05:13.901Z,18.30
2022-07-30T07:07:56.536Z,18.40
2022-07-30T07:10:28.014Z,18.50
2022-07-30T07:13:05.154Z,18.50
2022-07-30T07:15:37.688Z,18.50
2022-07-30T07:20:40.099Z,18.60
2022-07-30T07:23:12.027Z,18.80
2022-07-30T07:25:41.763Z,18.80
2022-07-30T07:28:12.175Z,18.90
2022-07-30T07:30:44.461Z,18.90
2022-07-30T07:33:15.530Z,19.00
2022-07-30T07:35:49.240Z,19.10
2022-07-30T07:38:30.923Z,19.10
2022-07-30T07:40:59.673Z,19.20
2022-07-30T07:43:29.173Z,19.30
2022-07-30T07:45:59.690Z,19.30
2022-07-30T07:48:30.895Z,19.40
2022-07-30T07:51:09.623Z,19.50
2022-07-30T07:53:38.482Z,16.80
2022-07-30T07:56:31.197Z,19.60
2022-07-30T07:59:01.269Z,19.70
2022-07-30T08:04:24.439Z,19.90
2022-07-30T08:07:19.705Z,20.00
2022-07-30T08:10:16.284Z,20.20
2022-07-30T08:13:04.292Z,20.10
2022-07-30T08:15:53.144Z,20.30
2022-07-30T08:18:29.735Z,20.30
2022-07-30T08:21:19.736Z,20.30
2022-07-30T08:23:48.015Z,20.50
2022-07-30T08:26:18.021Z,20.60
2022-07-30T08:28:45.917Z,20.60
2022-07-30T08:31:14.277Z,20.60
2022-07-30T08:33:42.176Z,20.80
2022-07-30T08:36:10.331Z,20.80
2022-07-30T08:38:39.876Z,20.70
2022-07-30T08:41:08.839Z,20.90
2022-07-30T08:43:37.647Z,20.90
2022-07-30T08:46:14.284Z,20.90
2022-07-30T08:48:55.070Z,20.90
2022-07-30T08:51:23.782Z,20.90
2022-07-30T08:54:30.035Z,20.90
2022-07-30T08:56:58.266Z,20.90
2022-07-30T08:59:59.523Z,20.80
2022-07-30T09:02:15.040Z,20.80
2022-07-30T09:05:00.913Z,20.80
2022-07-30T09:07:29.456Z,20.70
2022-07-30T09:13:54.393Z,20.60
2022-07-30T09:16:27.411Z,20.60
2022-07-30T09:21:29.180Z,20.80
2022-07-30T09:24:48.581Z,20.90
2022-07-30T09:27:51.309Z,21.10
2022-07-30T09:30:52.856Z,21.20
2022-07-30T09:33:47.512Z,21.30
2022-07-30T09:39:42.502Z,21.40
2022-07-30T09:42:29.060Z,21.40
2022-07-30T09:45:08.300Z,21.40
2022-07-30T09:47:42.868Z,21.40
2022-07-30T09:50:13.476Z,21.50
2022-07-30T09:53:11.884Z,21.50
2022-07-30T09:55:43.141Z,21.60
2022-07-30T09:58:16.610Z,21.70
2022-07-30T10:00:59.604Z,21.70
2022-07-30T10:03:47.896Z,21.70
2022-07-30T10:06:54.843Z,21.60
2022-07-30T10:09:37.471Z,21.60
2022-07-30T10:12:11.272Z,21.50
2022-07-30T10:14:45.759Z,21.50
2022-07-30T10:17:17.521Z,21.50
2022-07-30T10:23:09.219Z,21.80
2022-07-30T10:25:48.946Z,21.90
2022-07-30T10:28:43.523Z,21.90
2022-07-30T10:31:49.412Z,22.00
2022-07-30T10:34:01.246Z,22.00
2022-07-30T10:36:29.959Z,21.90
2022-07-30T10:38:57.914Z,21.90
2022-07-30T10:41:42.802Z,21.70
2022-07-30T10:44:49.412Z,21.60
2022-07-30T10:47:19.265Z,21.70
2022-07-30T10:50:11.833Z,21.50
2022-07-30T10:52:50.622Z,21.40
2022-07-30T10:55:37.218Z,21.30
2022-07-30T10:58:07.031Z,21.10
2022-07-30T11:00:55.915Z,21.10
2022-07-30T11:03:41.042Z,20.90
2022-07-30T11:06:15.844Z,20.90
2022-07-30T11:08:48.039Z,20.90
2022-07-30T11:12:01.496Z,21.00
2022-07-30T11:14:10.704Z,21.00
2022-07-30T11:16:39.389Z,21.30
2022-07-30T11:19:55.317Z,21.40
2022-07-30T11:22:38.947Z,21.60
2022-07-30T11:25:50.271Z,21.80
2022-07-30T11:28:40.023Z,21.90
2022-07-30T11:31:54.936Z,21.90
2022-07-30T11:34:19.618Z,21.80
2022-07-30T11:37:18.390Z,21.70
2022-07-30T11:40:06.095Z,21.70
2022-07-30T11:42:39.371Z,21.80
2022-07-30T11:45:17.169Z,21.80
2022-07-30T11:47:47.981Z,21.80
2022-07-30T11:50:23.901Z,21.80
2022-07-30T11:53:12.900Z,21.90
2022-07-30T11:55:44.114Z,21.90
2022-07-30T11:58:26.723Z,22.00
2022-07-30T12:00:57.614Z,22.10
2022-07-30T12:03:30.081Z,22.30
2022-07-30T12:06:17.975Z,22.30
2022-07-30T12:08:58.217Z,22.40
2022-07-30T12:11:33.368Z,22.50
2022-07-30T12:14:02.209Z,22.40
2022-07-30T12:16:31.779Z,22.20
2022-07-30T12:19:06.108Z,21.80
2022-07-30T12:21:34.626Z,21.70
2022-07-30T12:24:10.332Z,21.60
2022-07-30T12:26:38.099Z,21.60
2022-07-30T12:29:10.172Z,21.80
2022-07-30T12:31:40.317Z,21.90
2022-07-30T12:34:26.057Z,22.10
2022-07-30T12:36:54.626Z,22.20
2022-07-30T12:39:24.740Z,22.20
2022-07-30T12:41:56.197Z,22.30
2022-07-30T12:44:42.197Z,22.70
2022-07-30T12:47:23.986Z,22.80
2022-07-30T12:49:53.736Z,22.70
2022-07-30T12:52:36.156Z,22.80
2022-07-30T12:55:07.357Z,23.00
2022-07-30T12:57:55.676Z,23.20
2022-07-30T13:00:25.742Z,23.20
2022-07-30T13:02:54.959Z,23.20
2022-07-30T13:06:02.117Z,23.30
2022-07-30T13:08:58.357Z,23.60
2022-07-30T13:11:37.699Z,23.90
2022-07-30T13:14:05.641Z,24.50
2022-07-30T13:16:36.144Z,24.60
2022-07-30T13:19:05.590Z,24.90
2022-07-30T13:21:35.407Z,25.00
2022-07-30T13:24:04.334Z,25.00
2022-07-30T13:26:33.986Z,24.80
2022-07-30T13:29:03.499Z,24.40
2022-07-30T13:34:41.078Z,24.20
2022-07-30T13:39:43.924Z,23.60
2022-07-30T13:42:11.559Z,23.30
2022-07-30T13:44:39.242Z,23.00
2022-07-30T13:47:09.708Z,23.00
2022-07-30T13:49:39.122Z,22.60
2022-07-30T13:52:06.779Z,22.40
2022-07-30T13:54:34.631Z,22.40
2022-07-30T13:57:02.573Z,22.30
2022-07-30T13:59:30.447Z,22.30
2022-07-30T14:01:58.338Z,22.20
2022-07-30T14:04:26.066Z,22.30
2022-07-30T14:06:53.837Z,22.20
2022-07-30T14:09:22.522Z,22.20
2022-07-30T14:11:50.370Z,22.30
2022-07-30T14:14:18.000Z,20.80
2022-07-30T14:16:47.046Z,22.50
2022-07-30T14:19:23.152Z,22.90
2022-07-30T14:21:53.993Z,22.90
2022-07-30T14:24:24.617Z,23.00
2022-07-30T14:26:57.391Z,22.90
2022-07-30T14:29:27.226Z,21.60
2022-07-30T14:31:56.089Z,22.70
2022-07-30T14:34:24.084Z,22.40
2022-07-30T14:36:51.731Z,22.30
2022-07-30T14:39:20.685Z,22.20
2022-07-30T14:49:24.620Z,21.50
2022-07-30T14:51:53.383Z,21.40
2022-07-30T14:54:21.217Z,21.40
2022-07-30T14:56:50.403Z,21.50
2022-07-30T14:59:19.687Z,21.60
2022-07-30T15:01:48.069Z,21.60
2022-07-30T15:06:45.087Z,21.90
2022-07-30T15:09:13.041Z,22.00
2022-07-30T15:12:04.387Z,22.00
2022-07-30T15:14:32.145Z,21.90
2022-07-30T15:17:04.139Z,22.00
2022-07-30T15:19:33.116Z,22.00
2022-07-30T15:22:02.822Z,21.90
2022-07-30T15:24:32.495Z,22.00
2022-07-30T15:27:00.322Z,21.90
2022-07-30T15:29:30.239Z,21.90
2022-07-30T15:32:01.011Z,21.80
2022-07-30T15:34:34.581Z,21.70
2022-07-30T15:37:03.418Z,21.80
2022-07-30T15:39:33.092Z,21.70
2022-07-30T15:42:02.343Z,22.50
2022-07-30T15:44:30.842Z,22.50
2022-07-30T15:46:59.406Z,22.60
2022-07-30T15:49:28.109Z,22.50
2022-07-30T15:51:56.080Z,22.40
2022-07-30T15:54:25.069Z,22.20
2022-07-30T15:56:54.150Z,22.20
2022-07-30T16:01:58.616Z,22.10
2022-07-30T16:04:31.699Z,22.10
2022-07-30T16:07:03.415Z,22.10
2022-07-30T16:09:31.144Z,22.20
2022-07-30T16:11:58.989Z,22.20
2022-07-30T16:14:27.351Z,21.80
2022-07-30T16:20:33.559Z,21.50
2022-07-30T16:23:10.409Z,21.40
2022-07-30T16:28:08.311Z,21.10
2022-07-30T16:30:36.117Z,21.00
2022-07-30T16:39:52.477Z,20.90
2022-07-30T16:42:22.476Z,20.90
2022-07-30T16:44:50.303Z,20.90
2022-07-30T16:47:17.881Z,20.90
2022-07-30T16:49:45.390Z,20.90
2022-07-30T16:52:13.529Z,20.80
2022-07-30T16:54:41.169Z,20.80
2022-07-30T16:57:10.732Z,20.80
2022-07-30T16:59:43.555Z,20.80
2022-07-30T17:04:41.567Z,20.90
2022-07-30T17:07:09.334Z,20.80
2022-07-30T17:09:37.148Z,20.80
2022-07-30T17:12:12.281Z,20.80
2022-07-30T17:14:43.479Z,20.90
2022-07-30T17:17:14.551Z,21.00
2022-07-30T17:19:43.571Z,21.10
2022-07-30T17:22:12.038Z,21.10
2022-07-30T17:29:38.769Z,21.10
2022-07-30T17:34:53.073Z,21.30
2022-07-30T17:37:21.783Z,21.40
2022-07-30T17:40:26.912Z,21.40
2022-07-30T17:42:39.871Z,21.40
2022-07-30T17:45:08.544Z,21.40
2022-07-30T17:47:40.766Z,21.30
2022-07-30T17:50:10.628Z,21.20
2022-07-30T17:52:41.172Z,21.20
2022-07-30T17:55:11.464Z,21.10
2022-07-30T17:57:39.971Z,21.00
2022-07-30T18:00:09.358Z,20.80
2022-07-30T18:02:38.020Z,20.90
2022-07-30T18:05:06.361Z,20.80
2022-07-30T18:07:35.623Z,20.70
2022-07-30T18:10:04.024Z,20.70
2022-07-30T18:12:31.744Z,20.60
2022-07-30T18:15:01.525Z,20.60
2022-07-30T18:17:29.690Z,20.60
2022-07-30T18:19:57.441Z,20.70
2022-07-30T18:22:29.240Z,20.60
2022-07-30T18:25:00.343Z,20.50
2022-07-30T18:27:28.428Z,20.50
2022-07-30T18:29:55.981Z,20.50
2022-07-30T18:32:24.750Z,20.50
2022-07-30T18:34:52.534Z,20.40
2022-07-30T18:37:22.412Z,20.40
2022-07-30T18:39:55.007Z,20.30
2022-07-30T18:42:27.628Z,20.20
2022-07-30T18:45:05.791Z,20.10
2022-07-30T18:52:29.736Z,19.30
2022-07-30T18:54:57.446Z,19.10
2022-07-30T18:57:25.075Z,18.90
2022-07-30T19:02:20.721Z,18.60
2022-07-30T19:04:48.210Z,18.50
2022-07-30T19:07:15.870Z,18.40
2022-07-30T19:09:43.806Z,18.40
2022-07-30T19:12:11.902Z,18.30
2022-07-30T19:14:40.750Z,18.30
2022-07-30T19:17:14.085Z,18.30
2022-07-30T19:24:41.492Z,18.40
2022-07-30T19:27:13.988Z,18.20
2022-07-30T19:29:42.285Z,18.40
2022-07-30T19:32:09.806Z,18.40
2022-07-30T19:34:37.447Z,18.40
2022-07-30T19:37:05.069Z,18.40
2022-07-30T19:42:04.026Z,18.40
2022-07-30T19:44:32.517Z,18.40
2022-07-30T19:47:00.204Z,18.40
2022-07-30T19:52:10.041Z,18.40
2022-07-30T19:54:46.147Z,18.40
2022-07-30T19:57:14.695Z,18.40
2022-07-30T19:59:59.892Z,18.40
2022-07-30T20:02:40.443Z,17.80
2022-07-30T20:05:11.143Z,18.40
2022-07-30T20:07:40.045Z,18.40
2022-07-30T20:10:11.221Z,18.40
2022-07-30T20:12:42.139Z,18.40
2022-07-30T20:17:42.866Z,18.30
2022-07-30T20:20:11.643Z,18.30
2022-07-30T20:22:39.435Z,18.40
2022-07-30T20:25:09.558Z,18.30
2022-07-30T20:27:40.501Z,18.30
2022-07-30T20:30:10.378Z,18.30
2022-07-30T20:32:43.537Z,18.30
2022-07-30T20:35:14.577Z,18.30
2022-07-30T20:37:55.590Z,18.30
2022-07-30T20:40:26.804Z,18.40
2022-07-30T20:42:55.375Z,18.30
2022-07-30T20:45:24.920Z,18.30
2022-07-30T20:47:57.477Z,18.30
2022-07-30T20:50:30.385Z,18.30
2022-07-30T20:52:59.961Z,18.30
2022-07-30T21:00:49.898Z,18.30
2022-07-30T21:03:22.397Z,18.30
2022-07-30T21:05:51.171Z,18.30
2022-07-30T21:08:21.369Z,18.30
2022-07-30T21:10:55.211Z,18.30
2022-07-30T21:13:24.939Z,18.30
2022-07-30T21:16:01.977Z,18.30
2022-07-30T21:18:31.790Z,18.30
2022-07-30T21:21:05.444Z,18.30
2022-07-30T21:26:13.284Z,18.30
2022-07-30T21:31:14.650Z,18.30
2022-07-30T21:33:44.142Z,18.30
2022-07-30T21:36:13.344Z,18.30
2022-07-30T21:38:44.233Z,18.20
2022-07-30T21:41:13.823Z,18.20
2022-07-30T21:43:44.115Z,18.20
2022-07-30T21:46:12.992Z,18.20
2022-07-30T21:48:43.311Z,18.20
2022-07-30T21:51:12.137Z,18.20
2022-07-30T21:56:15.872Z,18.20
2022-07-30T21:58:45.143Z,18.20
2022-07-30T22:01:18.060Z,18.20
2022-07-30T22:04:07.821Z,18.20
2022-07-30T22:06:38.226Z,18.20
2022-07-30T22:09:19.264Z,18.20
2022-07-30T22:11:56.697Z,18.20
2022-07-30T22:16:57.483Z,18.20
2022-07-30T22:21:53.848Z,18.10
2022-07-30T22:24:29.329Z,18.10
2022-07-30T22:27:10.694Z,18.10
2022-07-30T22:29:43.471Z,18.10
2022-07-30T22:32:12.216Z,18.10
2022-07-30T22:37:12.459Z,18.10
2022-07-30T22:39:50.182Z,18.10
2022-07-30T22:42:24.418Z,18.10
2022-07-30T22:44:55.491Z,18.10
2022-07-30T22:47:50.613Z,18.10
2022-07-30T22:50:12.080Z,18.10
2022-07-30T22:52:52.615Z,18.10
2022-07-30T22:55:27.335Z,20.40
2022-07-30T23:00:27.702Z,18.10
2022-07-30T23:02:56.957Z,18.10
2022-07-30T23:05:25.579Z,18.10
2022-07-30T23:07:53.988Z,18.10
2022-07-30T23:10:21.861Z,18.10
2022-07-30T23:12:52.974Z,18.10
2022-07-30T23:15:22.476Z,18.10
2022-07-30T23:17:50.652Z,18.10
2022-07-30T23:20:20.670Z,18.10
2022-07-30T23:22:49.079Z,18.10
2022-07-30T23:27:46.843Z,18.00
2022-07-30T23:30:15.144Z,18.00
2022-07-30T23:32:43.100Z,18.00
2022-07-30T23:35:11.750Z,17.90
2022-07-30T23:37:47.664Z,18.00
2022-07-30T23:40:19.914Z,17.90
2022-07-30T23:42:50.883Z,17.90
2022-07-30T23:45:19.100Z,17.90
2022-07-30T23:48:00.943Z,17.90
2022-07-30T23:50:33.367Z,17.90
2022-07-30T23:53:02.985Z,17.90
2022-07-30T23:55:32.000Z,17.90
2022-07-30T23:58:00.354Z,17.80
